Time;durP1;ratioP1;P1;durP2;ratioP2;P2;SDS_P1;SDS_P2;PMS_P1;PMS_P2;Temp;Humidity;BMP_temperature;BMP_pressure;BME280_temperature;BME280_humidity;BME280_pressure;Samples;Min_cycle;Max_cycle;Signal;HPM_P1;HPM_P2
2023/09/03 00:00:33;;;;;;;6.27;4.87;;;13.60;44.70;;;;;;4977028;28;20042;-82
2023/09/03 00:02:58;;;;;;;5.50;5.00;;;13.60;44.70;;;;;;4975707;28;20062;-83
2023/09/03 00:05:24;;;;;;;5.63;4.63;;;13.60;43.30;;;;;;4950178;28;20058;-82
2023/09/03 00:07:50;;;;;;;5.07;4.57;;;13.60;40.70;;;;;;4957612;28;20045;-82
2023/09/03 00:10:16;;;;;;;5.22;4.72;;;13.50;38.90;;;;;;4994869;28;20112;-82
2023/09/03 00:12:42;;;;;;;5.63;5.03;;;13.50;37.50;;;;;;4995531;28;20046;-82
2023/09/03 00:15:09;;;;;;;5.65;5.22;;;13.40;37.40;;;;;;4977889;28;20050;-82
2023/09/03 00:17:34;;;;;;;5.93;5.32;;;13.30;37.20;;;;;;4962068;28;20042;-82
2023/09/03 00:20:00;;;;;;;6.03;5.00;;;13.20;34.60;;;;;;4958468;28;20058;-82
2023/09/03 00:22:25;;;;;;;6.83;6.13;;;13.20;32.90;;;;;;4976007;28;20078;-82
2023/09/03 00:24:51;;;;;;;8.27;7.47;;;13.10;33.80;;;;;;4976115;28;20055;-82
2023/09/03 00:27:17;;;;;;;6.40;5.73;;;13.10;37.30;;;;;;4975334;28;20481;-82
2023/09/03 00:29:42;;;;;;;8.33;6.83;;;13.00;41.20;;;;;;4975541;28;20042;-82
2023/09/03 00:32:08;;;;;;;9.30;5.87;;;13.10;43.30;;;;;;4981343;28;20046;-82
2023/09/03 00:34:34;;;;;;;8.63;6.03;;;13.00;44.50;;;;;;4977976;28;20489;-82
2023/09/03 00:36:59;;;;;;;6.27;5.70;;;13.00;46.00;;;;;;4992913;28;20070;-86
2023/09/03 00:39:25;;;;;;;5.97;5.23;;;13.00;46.70;;;;;;4993565;28;20046;-82
2023/09/03 00:41:51;;;;;;;6.70;5.03;;;13.00;45.60;;;;;;4991990;28;20047;-82
2023/09/03 00:44:16;;;;;;;6.07;5.57;;;12.90;43.60;;;;;;4991617;28;20389;-82
2023/09/03 00:46:45;;;;;;;5.10;4.60;;;12.90;41.60;;;;;;4975910;28;20074;-81
2023/09/03 00:49:14;;;;;;;4.85;4.45;;;12.80;38.90;;;;;;4976481;28;20444;-81
2023/09/03 00:51:40;;;;;;;5.07;4.57;;;12.80;39.80;;;;;;4976146;28;20050;-81
2023/09/03 00:54:06;;;;;;;5.63;5.13;;;12.70;40.10;;;;;;4975371;28;20034;-83
2023/09/03 00:56:32;;;;;;;8.10;6.22;;;12.70;39.90;;;;;;4993102;28;20092;-82
2023/09/03 00:58:59;;;;;;;6.32;5.10;;;12.60;40.00;;;;;;4958665;28;20138;-82
2023/09/03 01:01:27;;;;;;;6.10;5.53;;;12.60;38.90;;;;;;4974438;28;20046;-82
2023/09/03 01:03:55;;;;;;;7.18;5.57;;;12.50;38.50;;;;;;4994522;28;20094;-82
2023/09/03 01:06:20;;;;;;;6.93;6.28;;;12.50;39.90;;;;;;4993782;28;20047;-82
2023/09/03 01:08:46;;;;;;;7.57;6.03;;;12.50;41.90;;;;;;4961079;28;20068;-82
2023/09/03 01:11:32;;;;;;;6.70;5.43;;;12.50;43.10;;;;;;4975093;28;20046;-84
2023/09/03 01:14:31;;;;;;;7.22;6.53;;;12.50;43.60;;;;;;4974951;28;20392;-82
2023/09/03 01:17:03;;;;;;;6.45;5.85;;;12.50;45.40;;;;;;4990587;28;20073;-82
2023/09/03 01:19:59;;;;;;;7.65;6.60;;;12.50;44.30;;;;;;4975499;28;20104;-81
2023/09/03 01:22:43;;;;;;;8.07;6.18;;;12.40;43.80;;;;;;4972914;28;20658;-82
2023/09/03 01:25:37;;;;;;;6.40;5.57;;;12.40;45.30;;;;;;4992374;28;20044;-82
2023/09/03 01:28:23;;;;;;;6.97;6.25;;;12.40;45.30;;;;;;4973071;28;20112;-82
2023/09/03 01:30:51;;;;;;;6.70;6.07;;;12.40;48.20;;;;;;4990192;28;20054;-82
2023/09/03 01:33:17;;;;;;;10.35;7.38;;;12.30;47.90;;;;;;4974544;28;20038;-82
2023/09/03 01:35:44;;;;;;;6.60;6.00;;;12.30;49.40;;;;;;4974963;28;20057;-84
2023/09/03 01:38:10;;;;;;;6.60;5.88;;;12.30;50.50;;;;;;4974504;28;20057;-83
2023/09/03 01:40:39;;;;;;;8.63;7.63;;;12.30;51.50;;;;;;4992341;28;20121;-82
2023/09/03 01:43:04;;;;;;;8.23;7.40;;;12.30;52.70;;;;;;4992671;28;20129;-82
2023/09/03 01:45:44;;;;;;;7.53;6.83;;;12.30;54.00;;;;;;4958377;28;20125;-83
2023/09/03 01:48:32;;;;;;;7.03;6.38;;;12.40;55.40;;;;;;4992010;28;20038;-83
2023/09/03 01:51:18;;;;;;;9.23;6.97;;;12.40;58.90;;;;;;4992613;28;20096;-84
2023/09/03 01:54:24;;;;;;;7.00;6.28;;;12.40;59.90;;;;;;4974591;28;20038;-84
2023/09/03 01:56:56;;;;;;;9.25;6.78;;;12.50;58.00;;;;;;4974315;28;20048;-82
2023/09/03 01:59:29;;;;;;;7.95;6.57;;;12.40;55.70;;;;;;4970861;28;20389;-83
2023/09/03 02:01:56;;;;;;;6.57;5.97;;;12.30;56.20;;;;;;4990077;28;20147;-84
2023/09/03 02:04:22;;;;;;;6.75;5.72;;;12.30;57.30;;;;;;4989119;28;20562;-82
2023/09/03 02:06:47;;;;;;;6.43;5.57;;;12.30;58.40;;;;;;4976058;28;20042;-82
2023/09/03 02:09:13;;;;;;;7.20;6.13;;;12.30;59.30;;;;;;4992769;28;20166;-86
2023/09/03 02:11:39;;;;;;;8.18;7.18;;;12.30;59.50;;;;;;4959921;28;20112;-84
2023/09/03 02:14:05;;;;;;;7.17;6.47;;;12.30;59.90;;;;;;4985030;28;20490;-82
2023/09/03 02:16:31;;;;;;;7.10;6.40;;;12.30;60.30;;;;;;4991734;28;20452;-82
2023/09/03 02:18:56;;;;;;;8.30;7.10;;;12.20;59.10;;;;;;4975189;28;20072;-82
2023/09/03 02:21:22;;;;;;;10.40;6.80;;;12.20;58.60;;;;;;4991175;28;20074;-82
2023/09/03 02:23:48;;;;;;;7.60;6.80;;;12.20;58.00;;;;;;4992121;28;20039;-83
2023/09/03 02:26:14;;;;;;;6.73;6.00;;;12.20;58.40;;;;;;4958475;28;20078;-87
2023/09/03 02:28:40;;;;;;;6.17;5.57;;;12.20;58.80;;;;;;4990790;28;20182;-82
2023/09/03 02:31:06;;;;;;;5.80;5.30;;;12.20;59.80;;;;;;4991928;28;20050;-81
2023/09/03 02:33:32;;;;;;;9.10;6.07;;;12.20;59.20;;;;;;4974280;28;20383;-83
2023/09/03 02:35:58;;;;;;;6.35;5.70;;;12.20;59.10;;;;;;4974499;28;20568;-82
2023/09/03 02:38:23;;;;;;;5.97;5.00;;;12.10;59.00;;;;;;4991336;28;20134;-82
2023/09/03 02:40:49;;;;;;;7.77;5.63;;;12.10;58.40;;;;;;4991869;28;20046;-82
2023/09/03 02:43:15;;;;;;;6.93;5.33;;;12.10;57.60;;;;;;4992056;28;20057;-83
2023/09/03 02:45:40;;;;;;;5.83;5.23;;;12.10;56.90;;;;;;4995537;28;20046;-82
2023/09/03 02:48:11;;;;;;;6.30;5.70;;;12.10;56.20;;;;;;4996165;28;20557;-83
2023/09/03 02:50:38;;;;;;;6.28;5.43;;;12.00;55.40;;;;;;4978013;28;20054;-82
2023/09/03 02:53:05;;;;;;;5.88;5.18;;;12.00;55.80;;;;;;4995791;28;20096;-82
2023/09/03 02:55:31;;;;;;;5.30;4.80;;;11.90;55.70;;;;;;4961765;28;20054;-82
2023/09/03 02:57:57;;;;;;;6.28;5.43;;;11.90;55.10;;;;;;4993720;28;20389;-82
2023/09/03 03:00:23;;;;;;;5.37;4.87;;;11.90;55.20;;;;;;4977851;28;20085;-84
2023/09/03 03:02:49;;;;;;;6.82;5.30;;;11.90;55.90;;;;;;4975484;28;20046;-83
2023/09/03 03:05:15;;;;;;;6.90;5.65;;;11.80;57.20;;;;;;4994152;28;20058;-82
2023/09/03 03:07:44;;;;;;;5.80;5.30;;;11.80;57.60;;;;;;4994687;28;20621;-81
2023/09/03 03:10:11;;;;;;;5.43;4.93;;;11.80;57.30;;;;;;4978034;28;20224;-83
2023/09/03 03:12:37;;;;;;;7.53;5.43;;;11.80;57.80;;;;;;4994422;28;20125;-82
2023/09/03 03:15:03;;;;;;;7.18;5.45;;;11.70;57.90;;;;;;4995706;28;20129;-82
2023/09/03 03:17:29;;;;;;;6.38;5.15;;;11.70;59.70;;;;;;4994721;28;20045;-82
2023/09/03 03:19:55;;;;;;;5.83;5.00;;;11.70;60.30;;;;;;4975672;28;20046;-82
2023/09/03 03:22:20;;;;;;;6.47;4.23;;;11.60;59.20;;;;;;4995026;28;20038;-83
2023/09/03 03:24:46;;;;;;;7.10;5.57;;;11.60;57.30;;;;;;4994884;28;20041;-82
2023/09/03 03:27:12;;;;;;;8.13;4.57;;;11.60;57.40;;;;;;4994794;28;20132;-82
2023/09/03 03:29:37;;;;;;;5.17;4.67;;;11.50;57.30;;;;;;4977203;28;20042;-82
2023/09/03 03:32:04;;;;;;;4.93;4.43;;;11.50;58.10;;;;;;4977171;28;20061;-82
2023/09/03 03:34:30;;;;;;;5.32;4.82;;;11.40;58.40;;;;;;4994193;28;20039;-82
2023/09/03 03:36:56;;;;;;;5.90;4.97;;;11.40;58.30;;;;;;4994700;28;20485;-82
2023/09/03 03:39:22;;;;;;;7.00;4.87;;;11.40;57.90;;;;;;4944966;28;20113;-83
2023/09/03 03:41:47;;;;;;;6.60;3.77;;;11.40;58.20;;;;;;4974255;28;20501;-82
2023/09/03 03:44:13;;;;;;;4.63;4.20;;;11.30;57.20;;;;;;4961744;28;20485;-82
2023/09/03 03:46:39;;;;;;;7.73;4.77;;;11.30;55.20;;;;;;4994088;28;20042;-82
2023/09/03 03:49:04;;;;;;;6.10;5.33;;;11.30;56.30;;;;;;4977376;28;20522;-83
2023/09/03 03:51:30;;;;;;;8.97;5.87;;;11.30;57.40;;;;;;4976683;28;20139;-85
2023/09/03 03:53:59;;;;;;;8.32;6.35;;;11.20;58.80;;;;;;4976920;28;20047;-82
2023/09/03 03:56:24;;;;;;;6.95;6.25;;;11.20;60.10;;;;;;4993091;28;20054;-83
2023/09/03 03:58:50;;;;;;;5.27;4.77;;;11.20;61.30;;;;;;4993744;28;20137;-83
2023/09/03 04:01:23;;;;;;;4.90;4.47;;;11.10;61.80;;;;;;4977048;28;20042;-83
2023/09/03 04:03:50;;;;;;;6.53;4.85;;;11.20;60.90;;;;;;4989971;28;20142;-82
2023/09/03 04:06:16;;;;;;;8.27;5.00;;;11.10;61.60;;;;;;4994241;28;20061;-83
2023/09/03 04:08:45;;;;;;;5.88;5.20;;;11.10;62.40;;;;;;4977028;28;20050;-83
2023/09/03 04:11:13;;;;;;;5.68;5.10;;;11.10;62.70;;;;;;4962036;28;20046;-82
2023/09/03 04:13:40;;;;;;;7.35;5.88;;;11.10;63.90;;;;;;4974950;28;20569;-83
2023/09/03 04:16:11;;;;;;;8.15;5.90;;;11.10;65.00;;;;;;4958794;28;20105;-82
2023/09/03 04:18:37;;;;;;;7.40;5.65;;;11.10;65.90;;;;;;4958362;28;20481;-83
2023/09/03 04:21:03;;;;;;;6.55;5.85;;;11.10;65.20;;;;;;4975739;28;20412;-82
2023/09/03 04:23:28;;;;;;;12.93;5.57;;;11.10;65.00;;;;;;4942866;28;20047;-82
2023/09/03 04:25:56;;;;;;;5.60;4.83;;;11.10;65.20;;;;;;4958273;28;20050;-82
2023/09/03 04:28:22;;;;;;;5.53;5.03;;;11.10;64.90;;;;;;4976102;28;20051;-82
2023/09/03 04:30:55;;;;;;;6.30;4.72;;;11.10;63.70;;;;;;4957921;28;20055;-82
2023/09/03 04:33:21;;;;;;;4.68;4.28;;;11.10;62.00;;;;;;4958265;28;20043;-82
2023/09/03 04:35:47;;;;;;;6.95;4.53;;;11.00;63.00;;;;;;4958110;28;20061;-82
2023/09/03 04:38:13;;;;;;;8.30;4.93;;;11.00;63.40;;;;;;4953491;28;20046;-82
2023/09/03 04:40:39;;;;;;;5.23;4.40;;;11.00;63.20;;;;;;4993318;28;20389;-83
2023/09/03 04:43:05;;;;;;;4.60;4.20;;;11.00;63.30;;;;;;4993780;28;20073;-82
2023/09/03 04:45:31;;;;;;;4.90;4.47;;;11.00;63.90;;;;;;4976083;28;20046;-82
2023/09/03 04:47:58;;;;;;;5.57;4.43;;;11.00;64.40;;;;;;4993660;28;20052;-82
2023/09/03 04:50:27;;;;;;;4.38;4.03;;;10.90;64.70;;;;;;4976247;28;20050;-82
2023/09/03 04:52:56;;;;;;;5.32;4.93;;;10.90;64.80;;;;;;4974197;28;20042;-82
2023/09/03 04:55:22;;;;;;;5.75;5.20;;;10.90;65.40;;;;;;4993561;28;20049;-84
2023/09/03 04:57:48;;;;;;;5.28;4.63;;;10.90;65.90;;;;;;4992653;28;20043;-82
2023/09/03 05:00:14;;;;;;;4.83;4.33;;;10.90;66.50;;;;;;4973446;28;20072;-82
2023/09/03 05:02:40;;;;;;;5.25;4.75;;;10.90;66.80;;;;;;4973044;28;20367;-82
2023/09/03 05:05:06;;;;;;;4.80;4.40;;;10.90;67.40;;;;;;4957673;28;20061;-82
2023/09/03 05:07:32;;;;;;;5.25;4.75;;;10.90;67.50;;;;;;4980294;28;20125;-82
2023/09/03 05:09:58;;;;;;;5.80;5.10;;;10.90;68.00;;;;;;4992422;28;20118;-82
2023/09/03 05:12:24;;;;;;;7.32;5.55;;;10.90;68.90;;;;;;4976115;28;20046;-85
2023/09/03 05:14:50;;;;;;;4.57;4.17;;;10.90;69.40;;;;;;4959618;28;20050;-82
2023/09/03 05:17:15;;;;;;;5.50;4.13;;;10.90;69.40;;;;;;4941624;28;20050;-83
2023/09/03 05:19:41;;;;;;;7.97;5.10;;;11.00;69.00;;;;;;4992212;28;20050;-82
2023/09/03 05:22:07;;;;;;;5.63;4.57;;;11.00;69.40;;;;;;4972097;28;20507;-82
2023/09/03 05:24:33;;;;;;;5.72;4.47;;;11.00;70.20;;;;;;4992592;28;20104;-83
2023/09/03 05:26:59;;;;;;;5.47;4.97;;;11.00;71.00;;;;;;4992860;28;20149;-82
2023/09/03 05:29:25;;;;;;;5.53;5.03;;;11.00;71.30;;;;;;4993036;28;20046;-82
2023/09/03 05:31:52;;;;;;;7.20;4.30;;;11.00;71.70;;;;;;4992185;28;20075;-83
2023/09/03 05:34:18;;;;;;;6.82;4.43;;;11.10;72.50;;;;;;4992051;28;20413;-83
2023/09/03 05:36:43;;;;;;;4.97;4.47;;;11.20;72.80;;;;;;4992878;28;20125;-83
2023/09/03 05:39:09;;;;;;;6.13;4.37;;;11.20;72.60;;;;;;4958103;28;20126;-82
2023/09/03 05:41:35;;;;;;;8.70;5.17;;;11.30;72.90;;;;;;4992884;28;20042;-81
2023/09/03 05:44:08;;;;;;;5.20;4.70;;;11.30;73.80;;;;;;4992832;28;20042;-83
2023/09/03 05:46:35;;;;;;;5.45;4.95;;;11.30;74.50;;;;;;4941851;28;20054;-82
2023/09/03 05:49:01;;;;;;;5.78;4.68;;;11.40;75.90;;;;;;4974758;28;20042;-82
2023/09/03 05:51:27;;;;;;;5.80;4.50;;;11.60;76.60;;;;;;4975269;28;20050;-82
2023/09/03 05:53:53;;;;;;;5.63;5.13;;;11.80;77.00;;;;;;4974951;28;20037;-82
2023/09/03 05:56:19;;;;;;;6.63;6.03;;;12.00;77.10;;;;;;4975499;28;20136;-81
2023/09/03 05:58:45;;;;;;;6.47;5.88;;;12.30;76.40;;;;;;4991628;28;20042;-86
2023/09/03 06:01:11;;;;;;;6.68;5.97;;;12.50;74.40;;;;;;4991845;28;20050;-81
2023/09/03 06:03:39;;;;;;;6.43;5.93;;;12.60;72.40;;;;;;4977556;28;20121;-83
2023/09/03 06:06:06;;;;;;;6.15;5.57;;;12.80;71.40;;;;;;4988821;28;20122;-80
2023/09/03 06:08:33;;;;;;;7.32;6.63;;;12.90;69.90;;;;;;4993575;28;20097;-81
2023/09/03 06:11:03;;;;;;;6.82;6.22;;;13.00;68.50;;;;;;4976144;28;20145;-81
2023/09/03 06:13:30;;;;;;;6.63;6.07;;;13.10;67.90;;;;;;4976600;28;20093;-83
2023/09/03 06:15:57;;;;;;;6.60;6.10;;;13.20;69.10;;;;;;4975766;28;20058;-83
2023/09/03 06:18:23;;;;;;;7.45;6.75;;;13.40;68.30;;;;;;4959537;28;20442;-83
2023/09/03 06:20:49;;;;;;;6.80;6.20;;;13.70;66.90;;;;;;4976857;28;20542;-86
2023/09/03 06:23:18;;;;;;;7.13;6.53;;;13.90;66.10;;;;;;4973825;28;20047;-83
2023/09/03 06:25:50;;;;;;;6.72;6.22;;;14.00;64.80;;;;;;4964009;28;20440;-83
2023/09/03 06:28:16;;;;;;;6.72;6.22;;;14.20;62.70;;;;;;4991368;28;20073;-82
2023/09/03 06:30:42;;;;;;;7.03;6.47;;;14.30;62.50;;;;;;4974218;28;20241;-83
2023/09/03 06:33:09;;;;;;;7.10;6.50;;;14.30;62.50;;;;;;4958374;28;20042;-83
2023/09/03 06:35:35;;;;;;;7.03;5.95;;;14.40;63.10;;;;;;4990633;28;20046;-84
2023/09/03 06:38:01;;;;;;;7.53;6.83;;;14.60;63.30;;;;;;4991748;28;20128;-84
2023/09/03 06:40:27;;;;;;;7.10;6.50;;;15.10;63.00;;;;;;4927211;28;20058;-84
2023/09/03 06:42:52;;;;;;;6.53;5.97;;;14.80;62.80;;;;;;4989493;28;20061;-87
2023/09/03 06:45:19;;;;;;;5.53;5.03;;;15.00;61.00;;;;;;4958566;28;20038;-89
2023/09/03 06:47:45;;;;;;;5.28;4.88;;;15.10;60.80;;;;;;4957736;28;20049;-89
2023/09/03 06:50:14;;;;;;;6.57;5.90;;;15.30;58.60;;;;;;4974817;28;20050;-87
2023/09/03 06:52:40;;;;;;;5.95;5.45;;;15.50;58.00;;;;;;4989460;28;20123;-88
2023/09/03 06:55:06;;;;;;;6.28;5.78;;;15.60;57.40;;;;;;4954713;28;20058;-87
2023/09/03 06:57:32;;;;;;;5.32;4.93;;;15.90;56.00;;;;;;4959362;28;20408;-83
2023/09/03 06:59:58;;;;;;;6.30;5.78;;;16.20;53.00;;;;;;4990778;28;20058;-82
2023/09/03 07:02:25;;;;;;;6.28;5.60;;;16.40;49.50;;;;;;4976325;28;20096;-83
2023/09/03 07:04:51;;;;;;;;;;;16.60;48.70;;;;;;4966183;28;20046;-84
2023/09/03 07:07:17;;;;;;;6.70;5.47;;;17.00;49.80;;;;;;4965702;28;19922;-83
2023/09/03 07:09:42;;;;;;;5.03;4.63;;;17.40;46.30;;;;;;4941981;28;20181;-84
2023/09/03 07:12:08;;;;;;;4.67;4.30;;;17.70;40.10;;;;;;4973632;28;20042;-84
2023/09/03 07:14:35;;;;;;;5.78;5.25;;;18.00;31.50;;;;;;4974385;28;20305;-83
2023/09/03 07:17:02;;;;;;;4.60;4.30;;;18.30;25.50;;;;;;4991332;28;20481;-84
2023/09/03 07:19:28;;;;;;;5.18;4.78;;;18.60;21.80;;;;;;4991822;28;20054;-82
2023/09/03 07:21:55;;;;;;;5.25;4.72;;;18.80;14.70;;;;;;4988706;28;20054;-83
2023/09/03 07:24:21;;;;;;;4.20;3.80;;;19.00;5.70;;;;;;4973848;28;20046;-83
2023/09/03 07:26:46;;;;;;;5.40;4.25;;;19.10;3.40;;;;;;4974310;28;20153;-86
2023/09/03 07:29:15;;;;;;;4.45;4.00;;;19.30;1.00;;;;;;4974414;28;20042;-86
2023/09/03 07:31:43;;;;;;;5.03;4.03;;;19.40;1.00;;;;;;4995096;28;20053;-85
2023/09/03 07:34:14;;;;;;;4.60;4.20;;;19.50;1.00;;;;;;4992096;28;20049;-87
2023/09/03 07:36:40;;;;;;;4.50;4.10;;;19.50;1.00;;;;;;4975282;28;20401;-86
2023/09/03 07:39:09;;;;;;;3.90;3.60;;;19.80;1.00;;;;;;4992717;28;20042;-87
2023/09/03 07:41:36;;;;;;;4.40;3.85;;;19.90;1.00;;;;;;4975657;28;20393;-87
2023/09/03 07:44:02;;;;;;;4.07;3.38;;;19.80;1.00;;;;;;4976946;28;20444;-91
2023/09/03 07:46:28;;;;;;;4.65;3.10;;;19.80;1.00;;;;;;4975730;28;20379;-88
2023/09/03 07:48:54;;;;;;;3.45;3.15;;;19.80;1.00;;;;;;4993206;28;20038;-85
2023/09/03 07:51:22;;;;;;;3.50;3.10;;;19.80;1.00;;;;;;4994541;28;20054;-85
2023/09/03 07:53:49;;;;;;;4.15;3.78;;;19.70;1.00;;;;;;4961158;28;20038;-86
2023/09/03 07:56:17;;;;;;;;;;;19.60;1.00;;;;;;4960884;28;20572;-86
2023/09/03 07:58:43;;;;;;;4.03;3.42;;;19.40;1.00;;;;;;4978028;28;20309;-87
2023/09/03 08:01:12;;;;;;;6.15;3.90;;;19.30;1.00;;;;;;4975043;28;20444;-86
2023/09/03 08:03:39;;;;;;;4.55;4.15;;;19.20;1.00;;;;;;4977186;28;20061;-86
2023/09/03 08:06:09;;;;;;;3.95;3.55;;;19.20;1.00;;;;;;4993127;28;20125;-85
2023/09/03 08:08:35;;;;;;;7.50;4.25;;;19.10;1.00;;;;;;4977191;28;20138;-90
2023/09/03 08:11:01;;;;;;;5.18;3.80;;;19.10;1.00;;;;;;4977050;28;20461;-91
2023/09/03 08:13:30;;;;;;;5.97;3.83;;;19.10;1.00;;;;;;4976962;28;20444;-90
2023/09/03 08:15:56;;;;;;;4.30;3.90;;;19.10;1.00;;;;;;4974128;28;20184;-86
2023/09/03 08:18:22;;;;;;;6.45;3.05;;;19.40;1.00;;;;;;4992718;28;20121;-86
2023/09/03 08:20:51;;;;;;;6.20;3.30;;;19.60;1.00;;;;;;4960647;28;20038;-86
2023/09/03 08:23:18;;;;;;;3.78;2.80;;;19.60;1.00;;;;;;4944364;28;20548;-86
2023/09/03 08:25:44;;;;;;;3.65;2.10;;;19.60;1.00;;;;;;4962116;28;20060;-86
2023/09/03 08:28:10;;;;;;;;;;;19.60;1.00;;;;;;4958680;28;20042;-87
2023/09/03 08:30:37;;;;;;;3.42;2.53;;;19.50;1.00;;;;;;4976645;28;20357;-88
2023/09/03 08:33:03;;;;;;;3.00;2.55;;;19.50;1.00;;;;;;4975579;28;20134;-89
2023/09/03 08:35:29;;;;;;;4.57;2.38;;;19.50;1.00;;;;;;4975480;28;20042;-88
2023/09/03 08:37:55;;;;;;;4.88;2.20;;;19.60;1.00;;;;;;4993243;28;20053;-92
2023/09/03 08:40:21;;;;;;;2.35;2.10;;;19.60;1.00;;;;;;4959809;28;20045;-92
2023/09/03 08:42:47;;;;;;;5.35;2.30;;;19.60;1.00;;;;;;4977289;28;20120;-89
2023/09/03 08:45:17;;;;;;;3.08;2.28;;;19.80;1.00;;;;;;4976457;28;20559;-95
2023/09/03 08:47:44;;;;;;;3.35;2.47;;;19.80;1.00;;;;;;4960235;28;20050;-90
2023/09/03 08:50:15;;;;;;;6.60;2.15;;;19.90;1.00;;;;;;4946491;28;20051;-92
2023/09/03 08:52:42;;;;;;;2.75;2.53;;;19.80;1.00;;;;;;4960283;28;20049;-92
2023/09/03 08:55:12;;;;;;;2.00;1.80;;;19.80;1.00;;;;;;4958360;28;20055;-89
2023/09/03 08:57:53;;;;;;;4.70;2.30;;;19.70;1.00;;;;;;4942569;28;20077;-90
2023/09/03 09:00:28;;;;;;;6.10;2.72;;;18.60;1.00;;;;;;4927957;28;20053;-90
2023/09/03 09:03:02;;;;;;;2.50;2.00;;;19.80;1.00;;;;;;4944716;28;20054;-89
2023/09/03 09:05:28;;;;;;;2.08;1.88;;;19.80;1.00;;;;;;4941724;28;20062;-89
2023/09/03 09:07:54;;;;;;;;;;;19.90;1.00;;;;;;4958182;28;20658;-89
2023/09/03 09:10:26;;;;;;;4.18;1.90;;;19.80;1.00;;;;;;4941016;28;20377;-89
2023/09/03 09:13:02;;;;;;;2.30;2.10;;;19.80;1.00;;;;;;4957880;28;20146;-89
2023/09/03 09:15:30;;;;;;;2.37;1.90;;;19.70;1.00;;;;;;4941431;28;20050;-89
2023/09/03 09:17:58;;;;;;;2.65;2.10;;;19.80;1.00;;;;;;4942196;28;20521;-90
2023/09/03 09:20:24;;;;;;;2.40;1.98;;;19.80;1.00;;;;;;4926100;28;20046;-89
2023/09/03 09:22:50;;;;;;;4.50;2.45;;;19.90;1.00;;;;;;4958015;28;20062;-89
2023/09/03 09:25:23;;;;;;;3.42;2.17;;;20.00;1.00;;;;;;4941596;28;20042;-90
2023/09/03 09:27:52;;;;;;;4.45;2.80;;;20.00;1.00;;;;;;4941922;28;20051;-89
2023/09/03 09:30:21;;;;;;;2.90;2.17;;;20.00;1.00;;;;;;4942947;28;20141;-90
2023/09/03 09:32:47;;;;;;;2.10;1.70;;;19.90;1.00;;;;;;4942800;28;20046;-89
2023/09/03 09:35:26;;;;;;;3.50;1.83;;;20.00;1.00;;;;;;4927042;28;20086;-89
2023/09/03 09:37:52;;;;;;;1.73;1.63;;;20.00;1.00;;;;;;4943642;28;20043;-89
2023/09/03 09:40:30;;;;;;;3.47;1.95;;;20.00;1.00;;;;;;4944128;28;20057;-90
2023/09/03 09:43:00;;;;;;;2.38;1.98;;;20.10;1.00;;;;;;4957553;28;20043;-89
2023/09/03 09:45:29;;;;;;;2.60;2.10;;;20.20;1.00;;;;;;4941034;28;20051;-89
2023/09/03 09:48:09;;;;;;;4.47;2.38;;;20.10;1.00;;;;;;4957353;28;20134;-89
2023/09/03 09:50:42;;;;;;;2.60;2.13;;;20.20;1.00;;;;;;4925416;28;20587;-89
2023/09/03 09:53:27;;;;;;;2.72;1.73;;;20.20;1.00;;;;;;4956250;28;20043;-89
2023/09/03 09:56:11;;;;;;;2.97;2.08;;;20.30;1.00;;;;;;4941268;28;20051;-90
2023/09/03 09:58:38;;;;;;;4.82;2.13;;;20.40;1.00;;;;;;4941592;28;20074;-89
2023/09/03 10:01:05;;;;;;;3.63;2.25;;;20.40;1.00;;;;;;4941268;28;20100;-89
2023/09/03 10:03:48;;;;;;;2.22;1.70;;;20.40;1.00;;;;;;4940664;28;20469;-89
2023/09/03 10:06:19;;;;;;;3.47;1.92;;;20.50;1.00;;;;;;4940086;28;20055;-89
2023/09/03 10:08:46;;;;;;;2.40;1.75;;;20.60;1.00;;;;;;4957325;28;20162;-89
2023/09/03 10:11:13;;;;;;;2.35;1.80;;;20.70;1.00;;;;;;4925581;28;20053;-90
2023/09/03 10:13:39;;;;;;;3.22;1.92;;;20.90;1.00;;;;;;4956418;28;20047;-89
2023/09/03 10:16:09;;;;;;;1.80;1.70;;;20.70;1.00;;;;;;4925262;28;20059;-89
2023/09/03 10:18:46;;;;;;;3.65;2.10;;;20.80;99.90;;;;;;4956280;28;20572;-88
2023/09/03 10:21:19;;;;;;;2.60;1.50;;;20.80;99.90;;;;;;4957045;28;20043;-89
2023/09/03 10:23:50;;;;;;;1.90;1.75;;;20.30;99.90;;;;;;4940918;28;20051;-88
2023/09/03 10:26:31;;;;;;;2.40;2.00;;;20.80;99.90;;;;;;4940877;28;20086;-89
2023/09/03 10:29:03;;;;;;;3.15;2.05;;;21.00;1.00;;;;;;4956855;28;20500;-90
2023/09/03 10:31:32;;;;;;;1.80;1.55;;;21.00;1.00;;;;;;4940602;28;20072;-89
2023/09/03 10:33:58;;;;;;;2.78;1.73;;;20.30;99.90;;;;;;4956530;28;20150;-89
2023/09/03 10:36:27;;;;;;;3.60;2.72;;;20.60;99.90;;;;;;4924366;28;20513;-89
2023/09/03 10:38:53;;;;;;;2.05;1.80;;;21.10;99.90;;;;;;4940589;28;20055;-89
2023/09/03 10:41:24;;;;;;;2.08;1.73;;;21.10;99.90;;;;;;4940947;28;20556;-89
2023/09/03 10:43:54;;;;;;;2.53;1.67;;;20.40;99.90;;;;;;4940729;28;20055;-89
2023/09/03 10:46:27;;;;;;;2.08;1.85;;;21.30;99.90;;;;;;4940866;28;20058;-89
2023/09/03 10:48:56;;;;;;;1.70;1.40;;;21.30;99.90;;;;;;4956737;28;20093;-90
2023/09/03 10:51:37;;;;;;;2.28;1.60;;;20.60;99.90;;;;;;4940477;28;20517;-90
2023/09/03 10:54:19;;;;;;;2.88;1.40;;;21.50;99.90;;;;;;4925501;28;20042;-90
2023/09/03 10:57:03;;;;;;;1.60;1.45;;;21.60;99.90;;;;;;4940109;28;20055;-90
2023/09/03 10:59:57;;;;;;;2.05;1.63;;;21.80;99.90;;;;;;4956168;28;20090;-89
2023/09/03 11:02:27;;;;;;;1.98;1.50;;;21.80;99.90;;;;;;4956643;28;20398;-90
2023/09/03 11:05:20;;;;;;;5.10;1.30;;;22.30;99.90;;;;;;4958344;28;20059;-90
2023/09/03 11:07:49;;;;;;;2.60;1.73;;;22.20;99.90;;;;;;4943925;28;20516;-89
2023/09/03 11:10:21;;;;;;;1.40;1.30;;;22.30;99.90;;;;;;4960344;28;20137;-89
2023/09/03 11:12:47;;;;;;;2.67;1.38;;;22.40;99.90;;;;;;4959619;28;20051;-89
2023/09/03 11:15:17;;;;;;;2.35;1.45;;;22.40;99.90;;;;;;4943531;28;20050;-90
2023/09/03 11:17:54;;;;;;;1.80;1.23;;;22.40;99.90;;;;;;4943745;28;20047;-90
2023/09/03 11:20:29;;;;;;;2.85;1.27;;;22.40;82.10;;;;;;4944635;28;20089;-89
2023/09/03 11:22:55;;;;;;;2.45;1.38;;;22.40;99.90;;;;;;4943801;28;20478;-90
2023/09/03 11:25:35;;;;;;;4.20;1.50;;;22.40;99.90;;;;;;4959929;28;20058;-89
2023/09/03 11:28:02;;;;;;;2.28;1.42;;;22.60;99.90;;;;;;4943938;28;20054;-89
2023/09/03 11:30:28;;;;;;;3.65;1.23;;;22.50;99.90;;;;;;4959798;28;20050;-90
2023/09/03 11:32:55;;;;;;;1.95;1.45;;;22.60;99.90;;;;;;4960021;28;20473;-90
2023/09/03 11:35:21;;;;;;;1.50;1.40;;;22.60;32.10;;;;;;4927443;28;20043;-90
2023/09/03 11:37:48;;;;;;;1.52;1.20;;;22.80;71.60;;;;;;4943230;28;20046;-89
2023/09/03 11:40:14;;;;;;;1.60;1.35;;;22.80;1.00;;;;;;4943748;28;20050;-90
2023/09/03 11:42:41;;;;;;;2.22;1.23;;;22.90;1.00;;;;;;4958917;28;20055;-89
2023/09/03 11:45:14;;;;;;;2.47;1.45;;;22.90;1.00;;;;;;4943555;28;20130;-89
2023/09/03 11:48:06;;;;;;;4.25;1.65;;;22.00;1.00;;;;;;4941993;28;20046;-89
2023/09/03 11:51:20;;;;;;;;;;;;;;;;;;;;;
2023/09/03 11:53:48;;;;;;;2.22;1.52;;;23.30;1.00;;;;;;4958346;28;20408;-90
2023/09/03 11:56:16;;;;;;;1.40;1.35;;;23.40;1.00;;;;;;4943406;28;20082;-90
2023/09/03 11:58:47;;;;;;;1.40;1.30;;;23.00;1.00;;;;;;4958994;28;20053;-90
2023/09/03 12:01:14;;;;;;;1.92;1.20;;;23.50;99.90;;;;;;4959497;28;20137;-90
2023/09/03 12:03:41;;;;;;;1.30;1.10;;;23.20;99.90;;;;;;4943067;28;20042;-90
2023/09/03 12:06:07;;;;;;;1.63;1.30;;;23.90;99.90;;;;;;4942589;28;20573;-90
2023/09/03 12:08:33;;;;;;;2.75;1.35;;;23.80;99.90;;;;;;4943448;28;20054;-90
2023/09/03 12:10:59;;;;;;;1.35;1.25;;;23.80;99.90;;;;;;4958760;28;20055;-89
2023/09/03 12:13:35;;;;;;;1.83;1.30;;;24.40;28.10;;;;;;4942932;28;20125;-90
2023/09/03 12:16:09;;;;;;;1.27;1.20;;;24.00;99.90;;;;;;4941666;28;20043;-89
2023/09/03 12:18:36;;;;;;;1.10;1.00;;;24.00;1.00;;;;;;4942836;28;20046;-90
2023/09/03 12:21:05;;;;;;;2.33;1.30;;;24.10;74.60;;;;;;4959256;28;20047;-90
2023/09/03 12:23:31;;;;;;;1.10;1.00;;;24.10;1.00;;;;;;4927539;28;20047;-90
2023/09/03 12:25:57;;;;;;;2.20;1.30;;;24.20;99.90;;;;;;4942234;28;20578;-89
2023/09/03 12:28:34;;;;;;;;;;;24.20;1.00;;;;;;4959224;28;20093;-90
2023/09/03 12:31:05;;;;;;;1.27;0.88;;;24.20;99.90;;;;;;4958372;28;19933;-90
2023/09/03 12:33:33;;;;;;;1.20;1.10;;;24.30;99.90;;;;;;4943587;28;20093;-90
2023/09/03 12:36:27;;;;;;;1.40;1.30;;;24.50;99.90;;;;;;4960489;28;20054;-90
2023/09/03 12:38:55;;;;;;;1.40;1.30;;;24.40;1.00;;;;;;4943491;28;20058;-90
2023/09/03 12:41:34;;;;;;;1.23;1.08;;;24.80;99.90;;;;;;4958976;28;20054;-90
2023/09/03 12:44:09;;;;;;;1.52;1.13;;;24.60;99.90;;;;;;4958871;28;20517;-90
2023/09/03 12:46:35;;;;;;;2.15;1.45;;;24.70;99.90;;;;;;4958556;28;20054;-90
2023/09/03 12:49:05;;;;;;;1.20;1.10;;;24.80;99.90;;;;;;4942194;28;20133;-91
2023/09/03 12:51:33;;;;;;;1.85;1.23;;;24.90;89.70;;;;;;4958629;28;20482;-90
2023/09/03 12:54:01;;;;;;;1.65;1.23;;;25.00;99.90;;;;;;4941978;28;20043;-90
2023/09/03 12:56:28;;;;;;;1.40;1.17;;;25.10;1.00;;;;;;4942248;28;20051;-91
2023/09/03 12:58:57;;;;;;;0.90;0.90;;;25.10;79.20;;;;;;4958581;28;20047;-91
2023/09/03 13:01:23;;;;;;;1.30;0.90;;;24.80;1.00;;;;;;4942034;28;20608;-91